Time;durP1;ratioP1;P1;durP2;ratioP2;P2;SDS_P1;SDS_P2;PMS_P1;PMS_P2;Temp;Humidity;BMP_temperature;BMP_pressure;BME280_temperature;BME280_humidity;BME280_pressure;Samples;Min_cycle;Max_cycle;Signal;HPM_P1;HPM_P2
2020/10/23 00:00:46;;;;;;;11.55;5.599999;;;;;;;11.87;92.25293;95287.53;;;;
2020/10/23 00:01:50;;;;;;;11.55;5.599999;;;;;;;11.87;92.25293;95287.53;;;;
2020/10/23 00:02:50;;;;;;;11.55;5.599999;;;;;;;11.87;92.25293;95287.53;;;;
2020/10/23 00:03:51;;;;;;;11.55;5.599999;;;;;;;11.87;92.25293;95287.53;;;;
2020/10/23 00:04:51;;;;;;;11.55;5.599999;;;;;;;11.87;92.25293;95287.53;;;;
2020/10/23 00:05:52;;;;;;;11.55;5.599999;;;;;;;11.87;92.25293;95287.53;;;;
2020/10/23 00:06:53;;;;;;;11.55;5.599999;;;;;;;11.87;92.25293;95287.53;;;;
2020/10/23 00:07:54;;;;;;;11.55;5.599999;;;;;;;11.87;92.25293;95287.53;;;;
2020/10/23 00:08:54;;;;;;;10.25;6.15;;;;;;;11.89;92.5752;95286.33;;;;
2020/10/23 00:09:56;;;;;;;10.25;6.15;;;;;;;11.89;92.5752;95286.33;;;;
2020/10/23 00:10:57;;;;;;;10.25;6.15;;;;;;;11.89;92.5752;95286.33;;;;
2020/10/23 00:11:58;;;;;;;10.25;6.15;;;;;;;11.89;92.5752;95286.33;;;;
2020/10/23 00:12:58;;;;;;;10.25;6.15;;;;;;;11.89;92.5752;95286.33;;;;
2020/10/23 00:13:59;;;;;;;10.25;6.15;;;;;;;11.89;92.5752;95286.33;;;;
2020/10/23 00:14:59;;;;;;;10.25;6.15;;;;;;;11.89;92.5752;95286.33;;;;
2020/10/23 00:16:00;;;;;;;10.25;6.15;;;;;;;11.89;92.5752;95286.33;;;;
2020/10/23 00:17:01;;;;;;;10.25;6.15;;;;;;;11.89;92.5752;95286.33;;;;
2020/10/23 00:18:02;;;;;;;10.25;6.15;;;;;;;11.89;92.5752;95286.33;;;;
2020/10/23 00:19:04;;;;;;;10.25;6.15;;;;;;;11.89;92.5752;95286.33;;;;
2020/10/23 00:20:05;;;;;;;9.749999;5.9;;;;;;;11.85;92.8125;95277.06;;;;
2020/10/23 00:21:06;;;;;;;9.749999;5.9;;;;;;;11.85;92.8125;95277.06;;;;
2020/10/23 00:22:06;;;;;;;9.749999;5.9;;;;;;;11.85;92.8125;95277.06;;;;
2020/10/23 00:23:07;;;;;;;9.749999;5.9;;;;;;;11.85;92.8125;95277.06;;;;
2020/10/23 00:24:07;;;;;;;9.749999;5.9;;;;;;;11.85;92.8125;95277.06;;;;
2020/10/23 00:25:08;;;;;;;9.749999;5.9;;;;;;;11.85;92.8125;95277.06;;;;
2020/10/23 00:26:11;;;;;;;9.749999;5.9;;;;;;;11.85;92.8125;95277.06;;;;
2020/10/23 00:27:11;;;;;;;9.749999;5.9;;;;;;;11.85;92.8125;95277.06;;;;
2020/10/23 00:28:12;;;;;;;9.749999;5.9;;;;;;;11.85;92.8125;95277.06;;;;
2020/10/23 00:29:12;;;;;;;9.749999;5.9;;;;;;;11.85;92.8125;95277.06;;;;
2020/10/23 00:30:13;;;;;;;10.5;6.35;;;;;;;11.85;93.23047;95279.24;;;;
2020/10/23 00:31:14;;;;;;;10.5;6.35;;;;;;;11.85;93.23047;95279.24;;;;
2020/10/23 00:32:14;;;;;;;10.5;6.35;;;;;;;11.85;93.23047;95279.24;;;;
2020/10/23 00:33:15;;;;;;;10.5;6.35;;;;;;;11.85;93.23047;95279.24;;;;
2020/10/23 00:34:16;;;;;;;10.5;6.35;;;;;;;11.85;93.23047;95279.24;;;;
2020/10/23 00:35:17;;;;;;;10.5;6.35;;;;;;;11.85;93.23047;95279.24;;;;
2020/10/23 00:36:17;;;;;;;10.5;6.35;;;;;;;11.85;93.23047;95279.24;;;;
2020/10/23 00:37:19;;;;;;;10.5;6.35;;;;;;;11.85;93.23047;95279.24;;;;
2020/10/23 00:38:20;;;;;;;10.5;6.35;;;;;;;11.85;93.23047;95279.24;;;;
2020/10/23 00:39:20;;;;;;;10.5;6.35;;;;;;;11.85;93.23047;95279.24;;;;
2020/10/23 00:40:21;;;;;;;10.5;6.35;;;;;;;11.85;93.23047;95279.24;;;;
2020/10/23 00:41:21;;;;;;;11.35;6.500001;;;;;;;11.79;93.46191;95279.79;;;;
2020/10/23 00:42:22;;;;;;;11.35;6.500001;;;;;;;11.79;93.46191;95279.79;;;;
2020/10/23 00:43:23;;;;;;;11.35;6.500001;;;;;;;11.79;93.46191;95279.79;;;;
2020/10/23 00:44:23;;;;;;;11.35;6.500001;;;;;;;11.79;93.46191;95279.79;;;;
2020/10/23 00:45:26;;;;;;;11.35;6.500001;;;;;;;11.79;93.46191;95279.79;;;;
2020/10/23 00:46:59;;;;;;;11.35;6.500001;;;;;;;11.79;93.46191;95279.79;;;;
2020/10/23 00:48:07;;;;;;;11.35;6.500001;;;;;;;11.79;93.46191;95279.79;;;;
2020/10/23 00:49:10;;;;;;;11.35;6.500001;;;;;;;11.79;93.46191;95279.79;;;;
2020/10/23 00:50:11;;;;;;;11.35;6.500001;;;;;;;11.79;93.46191;95279.79;;;;
2020/10/23 00:51:14;;;;;;;10.55;6.949998;;;;;;;11.8;93.90332;95291.72;;;;
2020/10/23 00:52:15;;;;;;;10.55;6.949998;;;;;;;11.8;93.90332;95291.72;;;;
2020/10/23 00:53:19;;;;;;;10.55;6.949998;;;;;;;11.8;93.90332;95291.72;;;;
2020/10/23 00:54:20;;;;;;;10.55;6.949998;;;;;;;11.8;93.90332;95291.72;;;;
2020/10/23 00:55:20;;;;;;;10.55;6.949998;;;;;;;11.8;93.90332;95291.72;;;;
2020/10/23 00:56:21;;;;;;;10.55;6.949998;;;;;;;11.8;93.90332;95291.72;;;;
2020/10/23 00:57:30;;;;;;;10.55;6.949998;;;;;;;11.8;93.90332;95291.72;;;;
2020/10/23 00:58:38;;;;;;;10.55;6.949998;;;;;;;11.8;93.90332;95291.72;;;;
2020/10/23 00:59:45;;;;;;;10.55;6.949998;;;;;;;11.8;93.90332;95291.72;;;;
2020/10/23 01:00:54;;;;;;;10.55;6.949998;;;;;;;11.8;93.90332;95291.72;;;;
2020/10/23 01:02:01;;;;;;;11.4;7.050001;;;;;;;11.75;94.0625;95293.92;;;;
2020/10/23 01:03:02;;;;;;;11.4;7.050001;;;;;;;11.75;94.0625;95293.92;;;;
2020/10/23 01:04:04;;;;;;;11.4;7.050001;;;;;;;11.75;94.0625;95293.92;;;;
2020/10/23 01:05:10;;;;;;;11.4;7.050001;;;;;;;11.75;94.0625;95293.92;;;;
2020/10/23 01:06:15;;;;;;;11.4;7.050001;;;;;;;11.75;94.0625;95293.92;;;;
2020/10/23 01:07:15;;;;;;;11.4;7.050001;;;;;;;11.75;94.0625;95293.92;;;;
2020/10/23 01:08:18;;;;;;;11.4;7.050001;;;;;;;11.75;94.0625;95293.92;;;;
2020/10/23 01:09:18;;;;;;;11.4;7.050001;;;;;;;11.75;94.0625;95293.92;;;;
2020/10/23 01:10:19;;;;;;;11.4;7.050001;;;;;;;11.75;94.0625;95293.92;;;;
2020/10/23 01:11:19;;;;;;;11.4;7.050001;;;;;;;11.75;94.0625;95293.92;;;;
2020/10/23 01:12:20;;;;;;;11.4;7.050001;;;;;;;11.75;94.0625;95293.92;;;;
2020/10/23 01:13:20;;;;;;;14.1;7.149999;;;;;;;11.75;94.34766;95272.83;;;;
2020/10/23 01:14:21;;;;;;;14.1;7.149999;;;;;;;11.75;94.34766;95272.83;;;;
2020/10/23 01:15:22;;;;;;;14.1;7.149999;;;;;;;11.75;94.34766;95272.83;;;;
2020/10/23 01:16:22;;;;;;;14.1;7.149999;;;;;;;11.75;94.34766;95272.83;;;;
2020/10/23 01:17:23;;;;;;;14.1;7.149999;;;;;;;11.75;94.34766;95272.83;;;;
2020/10/23 01:18:25;;;;;;;14.1;7.149999;;;;;;;11.75;94.34766;95272.83;;;;
2020/10/23 01:19:26;;;;;;;14.1;7.149999;;;;;;;11.75;94.34766;95272.83;;;;
2020/10/23 01:20:27;;;;;;;14.1;7.149999;;;;;;;11.75;94.34766;95272.83;;;;
2020/10/23 01:21:28;;;;;;;14.1;7.149999;;;;;;;11.75;94.34766;95272.83;;;;
2020/10/23 01:22:35;;;;;;;14.1;7.149999;;;;;;;11.75;94.34766;95272.83;;;;
2020/10/23 01:23:43;;;;;;;10.35;7.5;;;;;;;11.64;94.58203;95265.99;;;;
2020/10/23 01:24:43;;;;;;;10.35;7.5;;;;;;;11.64;94.58203;95265.99;;;;
2020/10/23 01:25:44;;;;;;;10.35;7.5;;;;;;;11.64;94.58203;95265.99;;;;
2020/10/23 01:26:45;;;;;;;10.35;7.5;;;;;;;11.64;94.58203;95265.99;;;;
2020/10/23 01:27:45;;;;;;;10.35;7.5;;;;;;;11.64;94.58203;95265.99;;;;
2020/10/23 01:28:46;;;;;;;10.35;7.5;;;;;;;11.64;94.58203;95265.99;;;;
2020/10/23 01:29:46;;;;;;;10.35;7.5;;;;;;;11.64;94.58203;95265.99;;;;
2020/10/23 01:30:47;;;;;;;10.35;7.5;;;;;;;11.64;94.58203;95265.99;;;;
2020/10/23 01:31:48;;;;;;;10.35;7.5;;;;;;;11.64;94.58203;95265.99;;;;
2020/10/23 01:32:49;;;;;;;10.35;7.5;;;;;;;11.64;94.58203;95265.99;;;;
2020/10/23 01:33:49;;;;;;;10.35;7.5;;;;;;;11.64;94.58203;95265.99;;;;
2020/10/23 01:34:50;;;;;;;10.95;7.450001;;;;;;;11.62;95.13184;95263.62;;;;
2020/10/23 01:35:51;;;;;;;10.95;7.450001;;;;;;;11.62;95.13184;95263.62;;;;
2020/10/23 01:36:52;;;;;;;10.95;7.450001;;;;;;;11.62;95.13184;95263.62;;;;
2020/10/23 01:37:53;;;;;;;10.95;7.450001;;;;;;;11.62;95.13184;95263.62;;;;
2020/10/23 01:38:54;;;;;;;10.95;7.450001;;;;;;;11.62;95.13184;95263.62;;;;
2020/10/23 01:39:54;;;;;;;10.95;7.450001;;;;;;;11.62;95.13184;95263.62;;;;
2020/10/23 01:40:55;;;;;;;10.95;7.450001;;;;;;;11.62;95.13184;95263.62;;;;
2020/10/23 01:41:55;;;;;;;10.95;7.450001;;;;;;;11.62;95.13184;95263.62;;;;
2020/10/23 01:42:57;;;;;;;10.95;7.450001;;;;;;;11.62;95.13184;95263.62;;;;
2020/10/23 01:43:58;;;;;;;10.95;7.450001;;;;;;;11.62;95.13184;95263.62;;;;
2020/10/23 01:44:58;;;;;;;11;7.299999;;;;;;;11.57;95.39063;95263.82;;;;
2020/10/23 01:45:59;;;;;;;11;7.299999;;;;;;;11.57;95.39063;95263.82;;;;
2020/10/23 01:46:59;;;;;;;11;7.299999;;;;;;;11.57;95.39063;95263.82;;;;
2020/10/23 01:48:00;;;;;;;11;7.299999;;;;;;;11.57;95.39063;95263.82;;;;
2020/10/23 01:49:00;;;;;;;11;7.299999;;;;;;;11.57;95.39063;95263.82;;;;
2020/10/23 01:50:01;;;;;;;11;7.299999;;;;;;;11.57;95.39063;95263.82;;;;
2020/10/23 01:51:01;;;;;;;11;7.299999;;;;;;;11.57;95.39063;95263.82;;;;
2020/10/23 01:52:02;;;;;;;11;7.299999;;;;;;;11.57;95.39063;95263.82;;;;
2020/10/23 01:53:03;;;;;;;11;7.299999;;;;;;;11.57;95.39063;95263.82;;;;
2020/10/23 01:54:03;;;;;;;11;7.299999;;;;;;;11.57;95.39063;95263.82;;;;
2020/10/23 01:55:04;;;;;;;11;7.299999;;;;;;;11.57;95.39063;95263.82;;;;
2020/10/23 01:56:05;;;;;;;11.5;8.200001;;;;;;;11.59;95.88477;95271.15;;;;
2020/10/23 01:57:06;;;;;;;11.5;8.200001;;;;;;;11.59;95.88477;95271.15;;;;
2020/10/23 01:58:06;;;;;;;11.5;8.200001;;;;;;;11.59;95.88477;95271.15;;;;
2020/10/23 01:59:07;;;;;;;11.5;8.200001;;;;;;;11.59;95.88477;95271.15;;;;
2020/10/23 02:00:07;;;;;;;11.5;8.200001;;;;;;;11.59;95.88477;95271.15;;;;
2020/10/23 02:01:08;;;;;;;11.5;8.200001;;;;;;;11.59;95.88477;95271.15;;;;
2020/10/23 02:02:08;;;;;;;11.5;8.200001;;;;;;;11.59;95.88477;95271.15;;;;
2020/10/23 02:03:09;;;;;;;11.5;8.200001;;;;;;;11.59;95.88477;95271.15;;;;
2020/10/23 02:04:10;;;;;;;11.5;8.200001;;;;;;;11.59;95.88477;95271.15;;;;
2020/10/23 02:05:10;;;;;;;11.5;8.200001;;;;;;;11.59;95.88477;95271.15;;;;
2020/10/23 02:06:11;;;;;;;11.05;8.000002;;;;;;;11.55;96.17285;95265.52;;;;
2020/10/23 02:07:11;;;;;;;11.05;8.000002;;;;;;;11.55;96.17285;95265.52;;;;
2020/10/23 02:08:12;;;;;;;11.05;8.000002;;;;;;;11.55;96.17285;95265.52;;;;
2020/10/23 02:09:12;;;;;;;11.05;8.000002;;;;;;;11.55;96.17285;95265.52;;;;
2020/10/23 02:10:13;;;;;;;11.05;8.000002;;;;;;;11.55;96.17285;95265.52;;;;
2020/10/23 02:11:14;;;;;;;11.05;8.000002;;;;;;;11.55;96.17285;95265.52;;;;
2020/10/23 02:12:14;;;;;;;11.05;8.000002;;;;;;;11.55;96.17285;95265.52;;;;
2020/10/23 02:13:15;;;;;;;11.05;8.000002;;;;;;;11.55;96.17285;95265.52;;;;
2020/10/23 02:14:15;;;;;;;11.05;8.000002;;;;;;;11.55;96.17285;95265.52;;;;
2020/10/23 02:15:16;;;;;;;11.05;8.000002;;;;;;;11.55;96.17285;95265.52;;;;
2020/10/23 02:16:17;;;;;;;11.05;8.000002;;;;;;;11.55;96.17285;95265.52;;;;
2020/10/23 02:17:17;;;;;;;13.7;7.750001;;;;;;;11.57;96.65625;95253.11;;;;
2020/10/23 02:18:18;;;;;;;13.7;7.750001;;;;;;;11.57;96.65625;95253.11;;;;
2020/10/23 02:19:18;;;;;;;13.7;7.750001;;;;;;;11.57;96.65625;95253.11;;;;
2020/10/23 02:20:19;;;;;;;13.7;7.750001;;;;;;;11.57;96.65625;95253.11;;;;
2020/10/23 02:21:19;;;;;;;13.7;7.750001;;;;;;;11.57;96.65625;95253.11;;;;
2020/10/23 02:22:20;;;;;;;13.7;7.750001;;;;;;;11.57;96.65625;95253.11;;;;
2020/10/23 02:23:20;;;;;;;13.7;7.750001;;;;;;;11.57;96.65625;95253.11;;;;
2020/10/23 02:24:21;;;;;;;13.7;7.750001;;;;;;;11.57;96.65625;95253.11;;;;
2020/10/23 02:25:21;;;;;;;13.7;7.750001;;;;;;;11.57;96.65625;95253.11;;;;
2020/10/23 02:26:29;;;;;;;13.7;7.750001;;;;;;;11.57;96.65625;95253.11;;;;
2020/10/23 02:27:29;;;;;;;13.2;8.050001;;;;;;;11.49;97.02344;95261.49;;;;
2020/10/23 02:28:30;;;;;;;13.2;8.050001;;;;;;;11.49;97.02344;95261.49;;;;
2020/10/23 02:29:30;;;;;;;13.2;8.050001;;;;;;;11.49;97.02344;95261.49;;;;
2020/10/23 02:30:31;;;;;;;13.2;8.050001;;;;;;;11.49;97.02344;95261.49;;;;
2020/10/23 02:31:32;;;;;;;13.2;8.050001;;;;;;;11.49;97.02344;95261.49;;;;
2020/10/23 02:32:33;;;;;;;13.2;8.050001;;;;;;;11.49;97.02344;95261.49;;;;
2020/10/23 02:33:33;;;;;;;13.2;8.050001;;;;;;;11.49;97.02344;95261.49;;;;
2020/10/23 02:34:34;;;;;;;13.2;8.050001;;;;;;;11.49;97.02344;95261.49;;;;
2020/10/23 02:35:34;;;;;;;13.2;8.050001;;;;;;;11.49;97.02344;95261.49;;;;
2020/10/23 02:36:35;;;;;;;13.2;8.050001;;;;;;;11.49;97.02344;95261.49;;;;
2020/10/23 02:37:35;;;;;;;13.2;8.050001;;;;;;;11.49;97.02344;95261.49;;;;
2020/10/23 02:38:36;;;;;;;10.9;7.900001;;;;;;;11.49;97.57715;95258.78;;;;
2020/10/23 02:39:37;;;;;;;10.9;7.900001;;;;;;;11.49;97.57715;95258.78;;;;
2020/10/23 02:40:37;;;;;;;10.9;7.900001;;;;;;;11.49;97.57715;95258.78;;;;
2020/10/23 02:41:38;;;;;;;10.9;7.900001;;;;;;;11.49;97.57715;95258.78;;;;
2020/10/23 02:42:38;;;;;;;10.9;7.900001;;;;;;;11.49;97.57715;95258.78;;;;
2020/10/23 02:43:41;;;;;;;10.9;7.900001;;;;;;;11.49;97.57715;95258.78;;;;
2020/10/23 02:44:42;;;;;;;10.9;7.900001;;;;;;;11.49;97.57715;95258.78;;;;
2020/10/23 02:45:42;;;;;;;10.9;7.900001;;;;;;;11.49;97.57715;95258.78;;;;
2020/10/23 02:46:43;;;;;;;10.9;7.900001;;;;;;;11.49;97.57715;95258.78;;;;
2020/10/23 02:47:44;;;;;;;10.9;7.900001;;;;;;;11.49;97.57715;95258.78;;;;
2020/10/23 02:48:45;;;;;;;14.3;8.200001;;;;;;;11.43;97.88184;95256.23;;;;
2020/10/23 02:49:46;;;;;;;14.3;8.200001;;;;;;;11.43;97.88184;95256.23;;;;
2020/10/23 02:50:47;;;;;;;14.3;8.200001;;;;;;;11.43;97.88184;95256.23;;;;
2020/10/23 02:51:47;;;;;;;14.3;8.200001;;;;;;;11.43;97.88184;95256.23;;;;
2020/10/23 02:52:48;;;;;;;14.3;8.200001;;;;;;;11.43;97.88184;95256.23;;;;
2020/10/23 02:53:48;;;;;;;14.3;8.200001;;;;;;;11.43;97.88184;95256.23;;;;
2020/10/23 02:54:49;;;;;;;14.3;8.200001;;;;;;;11.43;97.88184;95256.23;;;;
2020/10/23 02:55:49;;;;;;;14.3;8.200001;;;;;;;11.43;97.88184;95256.23;;;;
2020/10/23 02:56:50;;;;;;;14.3;8.200001;;;;;;;11.43;97.88184;95256.23;;;;
2020/10/23 02:57:50;;;;;;;14.3;8.200001;;;;;;;11.43;97.88184;95256.23;;;;
2020/10/23 02:58:51;;;;;;;14.3;8.200001;;;;;;;11.43;97.88184;95256.23;;;;
2020/10/23 02:59:51;;;;;;;11.2;8.299998;;;;;;;11.42;98.33691;95246.09;;;;
2020/10/23 03:00:52;;;;;;;11.2;8.299998;;;;;;;11.42;98.33691;95246.09;;;;
2020/10/23 03:01:53;;;;;;;11.2;8.299998;;;;;;;11.42;98.33691;95246.09;;;;
2020/10/23 03:02:53;;;;;;;11.2;8.299998;;;;;;;11.42;98.33691;95246.09;;;;
2020/10/23 03:03:54;;;;;;;11.2;8.299998;;;;;;;11.42;98.33691;95246.09;;;;
2020/10/23 03:04:54;;;;;;;11.2;8.299998;;;;;;;11.42;98.33691;95246.09;;;;
2020/10/23 03:05:55;;;;;;;11.2;8.299998;;;;;;;11.42;98.33691;95246.09;;;;
2020/10/23 03:06:59;;;;;;;11.2;8.299998;;;;;;;11.42;98.33691;95246.09;;;;
2020/10/23 03:08:00;;;;;;;11.2;8.299998;;;;;;;11.42;98.33691;95246.09;;;;
2020/10/23 03:09:00;;;;;;;11.2;8.299998;;;;;;;11.42;98.33691;95246.09;;;;
2020/10/23 03:10:01;;;;;;;15.1;8.1;;;;;;;11.31;98.64355;95236.03;;;;
2020/10/23 03:11:02;;;;;;;15.1;8.1;;;;;;;11.31;98.64355;95236.03;;;;
2020/10/23 03:12:03;;;;;;;15.1;8.1;;;;;;;11.31;98.64355;95236.03;;;;
2020/10/23 03:13:04;;;;;;;15.1;8.1;;;;;;;11.31;98.64355;95236.03;;;;
2020/10/23 03:14:08;;;;;;;15.1;8.1;;;;;;;11.31;98.64355;95236.03;;;;
2020/10/23 03:15:09;;;;;;;15.1;8.1;;;;;;;11.31;98.64355;95236.03;;;;
2020/10/23 03:16:09;;;;;;;15.1;8.1;;;;;;;11.31;98.64355;95236.03;;;;
2020/10/23 03:17:10;;;;;;;15.1;8.1;;;;;;;11.31;98.64355;95236.03;;;;
2020/10/23 03:18:13;;;;;;;15.1;8.1;;;;;;;11.31;98.64355;95236.03;;;;
2020/10/23 03:19:16;;;;;;;15.1;8.1;;;;;;;11.31;98.64355;95236.03;;;;
2020/10/23 03:20:16;;;;;;;15.1;8.1;;;;;;;11.31;98.64355;95236.03;;;;
2020/10/23 03:21:17;;;;;;;14.25;8.849999;;;;;;;11.29;99.18066;95234.62;;;;
2020/10/23 03:22:20;;;;;;;14.25;8.849999;;;;;;;11.29;99.18066;95234.62;;;;
2020/10/23 03:23:21;;;;;;;14.25;8.849999;;;;;;;11.29;99.18066;95234.62;;;;
2020/10/23 03:24:21;;;;;;;14.25;8.849999;;;;;;;11.29;99.18066;95234.62;;;;
2020/10/23 03:25:22;;;;;;;14.25;8.849999;;;;;;;11.29;99.18066;95234.62;;;;
2020/10/23 03:26:22;;;;;;;14.25;8.849999;;;;;;;11.29;99.18066;95234.62;;;;
2020/10/23 03:27:23;;;;;;;14.25;8.849999;;;;;;;11.29;99.18066;95234.62;;;;
2020/10/23 03:28:23;;;;;;;14.25;8.849999;;;;;;;11.29;99.18066;95234.62;;;;
2020/10/23 03:29:24;;;;;;;14.25;8.849999;;;;;;;11.29;99.18066;95234.62;;;;
2020/10/23 03:30:25;;;;;;;14.25;8.849999;;;;;;;11.29;99.18066;95234.62;;;;
2020/10/23 03:31:25;;;;;;;13.25;8.249999;;;;;;;11.14;99.57324;95221.22;;;;
2020/10/23 03:32:26;;;;;;;13.25;8.249999;;;;;;;11.14;99.57324;95221.22;;;;
2020/10/23 03:33:26;;;;;;;13.25;8.249999;;;;;;;11.14;99.57324;95221.22;;;;
2020/10/23 03:34:27;;;;;;;13.25;8.249999;;;;;;;11.14;99.57324;95221.22;;;;
2020/10/23 03:35:28;;;;;;;13.25;8.249999;;;;;;;11.14;99.57324;95221.22;;;;
2020/10/23 03:36:28;;;;;;;13.25;8.249999;;;;;;;11.14;99.57324;95221.22;;;;
2020/10/23 03:37:28;;;;;;;13.25;8.249999;;;;;;;11.14;99.57324;95221.22;;;;
2020/10/23 03:38:29;;;;;;;13.25;8.249999;;;;;;;11.14;99.57324;95221.22;;;;
2020/10/23 03:39:29;;;;;;;13.25;8.249999;;;;;;;11.14;99.57324;95221.22;;;;
2020/10/23 03:40:30;;;;;;;13.25;8.249999;;;;;;;11.14;99.57324;95221.22;;;;
2020/10/23 03:41:31;;;;;;;13.25;8.249999;;;;;;;11.14;99.57324;95221.22;;;;
2020/10/23 03:42:37;;;;;;;14.55;8.400001;;;;;;;11.11;100;95218.17;;;;
2020/10/23 03:43:40;;;;;;;14.55;8.400001;;;;;;;11.11;100;95218.17;;;;
2020/10/23 03:44:41;;;;;;;14.55;8.400001;;;;;;;11.11;100;95218.17;;;;
2020/10/23 03:45:47;;;;;;;14.55;8.400001;;;;;;;11.11;100;95218.17;;;;
2020/10/23 03:46:52;;;;;;;14.55;8.400001;;;;;;;11.11;100;95218.17;;;;
2020/10/23 03:48:04;;;;;;;14.55;8.400001;;;;;;;11.11;100;95218.17;;;;
2020/10/23 03:49:15;;;;;;;14.55;8.400001;;;;;;;11.11;100;95218.17;;;;
2020/10/23 03:50:23;;;;;;;14.55;8.400001;;;;;;;11.11;100;95218.17;;;;
2020/10/23 03:51:32;;;;;;;14.55;8.400001;;;;;;;11.11;100;95218.17;;;;
2020/10/23 03:52:49;;;;;;;13.15;8.700001;;;;;;;11.12;100;95215.23;;;;
2020/10/23 03:54:09;;;;;;;13.15;8.700001;;;;;;;11.12;100;95215.23;;;;
2020/10/23 03:55:20;;;;;;;13.15;8.700001;;;;;;;11.12;100;95215.23;;;;
2020/10/23 03:56:26;;;;;;;13.15;8.700001;;;;;;;11.12;100;95215.23;;;;
2020/10/23 03:58:24;;;;;;;13.15;8.700001;;;;;;;11.12;100;95215.23;;;;
2020/10/23 03:59:37;;;;;;;13.15;8.700001;;;;;;;11.12;100;95215.23;;;;
2020/10/23 04:00:59;;;;;;;13.15;8.700001;;;;;;;11.12;100;95215.23;;;;
2020/10/23 04:02:15;;;;;;;13.15;8.700001;;;;;;;11.12;100;95215.23;;;;
2020/10/23 04:03:33;;;;;;;14.6;8.400001;;;;;;;11.23;100;95212.08;;;;
2020/10/23 04:05:30;;;;;;;14.6;8.400001;;;;;;;11.23;100;95212.08;;;;
2020/10/23 04:06:37;;;;;;;14.6;8.400001;;;;;;;11.23;100;95212.08;;;;
2020/10/23 04:07:46;;;;;;;14.6;8.400001;;;;;;;11.23;100;95212.08;;;;
2020/10/23 04:08:56;;;;;;;14.6;8.400001;;;;;;;11.23;100;95212.08;;;;
2020/10/23 04:10:07;;;;;;;14.6;8.400001;;;;;;;11.23;100;95212.08;;;;
2020/10/23 04:11:23;;;;;;;14.6;8.400001;;;;;;;11.23;100;95212.08;;;;
2020/10/23 04:12:29;;;;;;;14.6;8.400001;;;;;;;11.23;100;95212.08;;;;
2020/10/23 04:13:35;;;;;;;14.6;8.400001;;;;;;;11.23;100;95212.08;;;;
2020/10/23 04:14:41;;;;;;;15.2;8.950001;;;;;;;11.25;100;95209.95;;;;
2020/10/23 04:15:54;;;;;;;15.2;8.950001;;;;;;;11.25;100;95209.95;;;;
2020/10/23 04:17:01;;;;;;;15.2;8.950001;;;;;;;11.25;100;95209.95;;;;
2020/10/23 04:18:19;;;;;;;15.2;8.950001;;;;;;;11.25;100;95209.95;;;;
2020/10/23 04:19:23;;;;;;;15.2;8.950001;;;;;;;11.25;100;95209.95;;;;
2020/10/23 04:20:26;;;;;;;15.2;8.950001;;;;;;;11.25;100;95209.95;;;;
2020/10/23 04:21:31;;;;;;;15.2;8.950001;;;;;;;11.25;100;95209.95;;;;
2020/10/23 04:22:32;;;;;;;15.2;8.950001;;;;;;;11.25;100;95209.95;;;;
2020/10/23 04:23:32;;;;;;;15.2;8.950001;;;;;;;11.25;100;95209.95;;;;
2020/10/23 04:24:33;;;;;;;15.2;8.950001;;;;;;;11.25;100;95209.95;;;;
2020/10/23 04:25:34;;;;;;;15.4;9.349999;;;;;;;11.3;100;95214.1;;;;
2020/10/23 04:26:35;;;;;;;15.4;9.349999;;;;;;;11.3;100;95214.1;;;;
2020/10/23 04:27:35;;;;;;;15.4;9.349999;;;;;;;11.3;100;95214.1;;;;
2020/10/23 04:28:54;;;;;;;15.4;9.349999;;;;;;;11.3;100;95214.1;;;;
2020/10/23 04:29:54;;;;;;;15.4;9.349999;;;;;;;11.3;100;95214.1;;;;
2020/10/23 04:31:09;;;;;;;15.4;9.349999;;;;;;;11.3;100;95214.1;;;;
2020/10/23 04:32:15;;;;;;;15.4;9.349999;;;;;;;11.3;100;95214.1;;;;
2020/10/23 04:33:17;;;;;;;15.4;9.349999;;;;;;;11.3;100;95214.1;;;;
2020/10/23 04:34:20;;;;;;;15.4;9.349999;;;;;;;11.3;100;95214.1;;;;
2020/10/23 04:35:23;;;;;;;16.25;9.849999;;;;;;;11.29;100;95211.13;;;;
2020/10/23 04:36:27;;;;;;;16.25;9.849999;;;;;;;11.29;100;95211.13;;;;
2020/10/23 04:37:31;;;;;;;16.25;9.849999;;;;;;;11.29;100;95211.13;;;;
2020/10/23 04:38:32;;;;;;;16.25;9.849999;;;;;;;11.29;100;95211.13;;;;
2020/10/23 04:39:33;;;;;;;16.25;9.849999;;;;;;;11.29;100;95211.13;;;;
2020/10/23 04:40:43;;;;;;;16.25;9.849999;;;;;;;11.29;100;95211.13;;;;
2020/10/23 04:41:55;;;;;;;16.25;9.849999;;;;;;;11.29;100;95211.13;;;;
2020/10/23 04:43:02;;;;;;;16.25;9.849999;;;;;;;11.29;100;95211.13;;;;
2020/10/23 04:44:14;;;;;;;16.25;9.849999;;;;;;;11.29;100;95211.13;;;;
2020/10/23 04:45:23;;;;;;;16.25;9.849999;;;;;;;11.29;100;95211.13;;;;
2020/10/23 04:46:27;;;;;;;16.9;9.550001;;;;;;;11.36;100;95203.27;;;;
2020/10/23 04:47:36;;;;;;;16.9;9.550001;;;;;;;11.36;100;95203.27;;;;
2020/10/23 04:48:42;;;;;;;16.9;9.550001;;;;;;;11.36;100;95203.27;;;;
2020/10/23 04:49:50;;;;;;;16.9;9.550001;;;;;;;11.36;100;95203.27;;;;
2020/10/23 04:50:57;;;;;;;16.9;9.550001;;;;;;;11.36;100;95203.27;;;;
2020/10/23 04:52:05;;;;;;;16.9;9.550001;;;;;;;11.36;100;95203.27;;;;
2020/10/23 04:53:29;;;;;;;16.9;9.550001;;;;;;;11.36;100;95203.27;;;;
2020/10/23 04:54:47;;;;;;;16.9;9.550001;;;;;;;11.36;100;95203.27;;;;
2020/10/23 04:55:54;;;;;;;16.9;9.550001;;;;;;;11.36;100;95203.27;;;;
2020/10/23 04:57:08;;;;;;;15.3;9.399999;;;;;;;11.37;100;95181.92;;;;
2020/10/23 04:58:27;;;;;;;15.3;9.399999;;;;;;;11.37;100;95181.92;;;;
2020/10/23 04:59:27;;;;;;;15.3;9.399999;;;;;;;11.37;100;95181.92;;;;
2020/10/23 05:00:28;;;;;;;15.3;9.399999;;;;;;;11.37;100;95181.92;;;;
2020/10/23 05:01:32;;;;;;;15.3;9.399999;;;;;;;11.37;100;95181.92;;;;
2020/10/23 05:02:33;;;;;;;15.3;9.399999;;;;;;;11.37;100;95181.92;;;;
2020/10/23 05:03:33;;;;;;;15.3;9.399999;;;;;;;11.37;100;95181.92;;;;
2020/10/23 05:04:34;;;;;;;15.3;9.399999;;;;;;;11.37;100;95181.92;;;;
2020/10/23 05:05:35;;;;;;;15.3;9.399999;;;;;;;11.37;100;95181.92;;;;
2020/10/23 05:06:36;;;;;;;15.3;9.399999;;;;;;;11.37;100;95181.92;;;;
2020/10/23 05:07:36;;;;;;;14.5;8.25;;;;;;;11.43;100;95170.56;;;;
2020/10/23 05:08:37;;;;;;;14.5;8.25;;;;;;;11.43;100;95170.56;;;;
2020/10/23 05:09:38;;;;;;;14.5;8.25;;;;;;;11.43;100;95170.56;;;;
2020/10/23 05:10:38;;;;;;;14.5;8.25;;;;;;;11.43;100;95170.56;;;;
2020/10/23 05:11:53;;;;;;;14.5;8.25;;;;;;;11.43;100;95170.56;;;;
2020/10/23 05:12:57;;;;;;;14.5;8.25;;;;;;;11.43;100;95170.56;;;;
2020/10/23 05:14:11;;;;;;;14.5;8.25;;;;;;;11.43;100;95170.56;;;;
2020/10/23 05:15:18;;;;;;;14.5;8.25;;;;;;;11.43;100;95170.56;;;;
2020/10/23 05:16:25;;;;;;;14.5;8.25;;;;;;;11.43;100;95170.56;;;;
2020/10/23 05:17:28;;;;;;;14.5;8.25;;;;;;;11.43;100;95170.56;;;;
2020/10/23 05:18:39;;;;;;;16.5;8.25;;;;;;;11.46;100;95167.36;;;;
2020/10/23 05:19:42;;;;;;;16.5;8.25;;;;;;;11.46;100;95167.36;;;;
2020/10/23 05:20:53;;;;;;;16.5;8.25;;;;;;;11.46;100;95167.36;;;;
2020/10/23 05:22:06;;;;;;;16.5;8.25;;;;;;;11.46;100;95167.36;;;;
2020/10/23 05:23:18;;;;;;;16.5;8.25;;;;;;;11.46;100;95167.36;;;;
2020/10/23 05:24:27;;;;;;;16.5;8.25;;;;;;;11.46;100;95167.36;;;;
2020/10/23 05:25:31;;;;;;;16.5;8.25;;;;;;;11.46;100;95167.36;;;;
2020/10/23 05:26:43;;;;;;;16.5;8.25;;;;;;;11.46;100;95167.36;;;;
2020/10/23 05:28:18;;;;;;;16.5;8.25;;;;;;;11.46;100;95167.36;;;;
2020/10/23 05:30:23;;;;;;;12.45;7.149999;;;;;;;11.57;100;95159.81;;;;
2020/10/23 05:31:24;;;;;;;12.45;7.149999;;;;;;;11.57;100;95159.81;;;;
2020/10/23 05:32:45;;;;;;;12.45;7.149999;;;;;;;11.57;100;95159.81;;;;
2020/10/23 05:33:50;;;;;;;12.45;7.149999;;;;;;;11.57;100;95159.81;;;;
2020/10/23 05:34:56;;;;;;;12.45;7.149999;;;;;;;11.57;100;95159.81;;;;
2020/10/23 05:36:05;;;;;;;12.45;7.149999;;;;;;;11.57;100;95159.81;;;;
2020/10/23 05:37:23;;;;;;;12.45;7.149999;;;;;;;11.57;100;95159.81;;;;
2020/10/23 05:38:53;;;;;;;12.45;7.149999;;;;;;;11.57;100;95159.81;;;;
2020/10/23 05:39:59;;;;;;;14.4;7.100001;;;;;;;11.58;100;95163.65;;;;
2020/10/23 05:41:16;;;;;;;14.4;7.100001;;;;;;;11.58;100;95163.65;;;;
2020/10/23 05:42:54;;;;;;;14.4;7.100001;;;;;;;11.58;100;95163.65;;;;
2020/10/23 05:44:08;;;;;;;14.4;7.100001;;;;;;;11.58;100;95163.65;;;;
2020/10/23 05:50:34;;;;;;;12.45;7.299999;;;;;;;11.63;100;95162.49;;;;
2020/10/23 05:51:58;;;;;;;12.45;7.299999;;;;;;;11.63;100;95162.49;;;;
2020/10/23 05:57:30;;;;;;;12.45;7.299999;;;;;;;11.63;100;95162.49;;;;
2020/10/23 06:02:58;;;;;;;12.9;7.25;;;;;;;11.59;100;95154.47;;;;
2020/10/23 06:04:51;;;;;;;12.9;7.25;;;;;;;11.59;100;95154.47;;;;
2020/10/23 06:06:20;;;;;;;12.9;7.25;;;;;;;11.59;100;95154.47;;;;
2020/10/23 06:07:27;;;;;;;12.9;7.25;;;;;;;11.59;100;95154.47;;;;
2020/10/23 06:08:27;;;;;;;12.9;7.25;;;;;;;11.59;100;95154.47;;;;
2020/10/23 06:09:38;;;;;;;12.9;7.25;;;;;;;11.59;100;95154.47;;;;
2020/10/23 06:10:38;;;;;;;12.9;7.25;;;;;;;11.59;100;95154.47;;;;
2020/10/23 06:11:40;;;;;;;14;6.9;;;;;;;11.65;100;95149.99;;;;